sensor_id;sensor_type;location;lat;lon;timestamp;temperature;humidity
21031;DHT22;61072;47.808;7.636;2023-12-22T00:01:26;9.50;99.90
21031;DHT22;61072;47.808;7.636;2023-12-22T00:03:53;9.50;99.90
21031;DHT22;61072;47.808;7.636;2023-12-22T00:06:19;9.50;99.90
21031;DHT22;61072;47.808;7.636;2023-12-22T00:08:46;9.50;99.90
21031;DHT22;61072;47.808;7.636;2023-12-22T00:11:13;9.50;99.90
21031;DHT22;61072;47.808;7.636;2023-12-22T00:13:40;9.50;99.90
21031;DHT22;61072;47.808;7.636;2023-12-22T00:16:07;9.50;99.90
21031;DHT22;61072;47.808;7.636;2023-12-22T00:18:33;9.50;99.90
21031;DHT22;61072;47.808;7.636;2023-12-22T00:21:00;9.60;99.90
21031;DHT22;61072;47.808;7.636;2023-12-22T00:23:27;9.50;99.90
21031;DHT22;61072;47.808;7.636;2023-12-22T00:25:54;9.60;99.90
21031;DHT22;61072;47.808;7.636;2023-12-22T00:28:20;9.50;99.90
21031;DHT22;61072;47.808;7.636;2023-12-22T00:30:47;9.50;99.90
21031;DHT22;61072;47.808;7.636;2023-12-22T00:33:14;9.50;99.90
21031;DHT22;61072;47.808;7.636;2023-12-22T00:35:41;9.50;99.90
21031;DHT22;61072;47.808;7.636;2023-12-22T00:38:07;9.50;99.90
21031;DHT22;61072;47.808;7.636;2023-12-22T00:40:34;9.40;99.90
21031;DHT22;61072;47.808;7.636;2023-12-22T00:43:01;9.40;99.90
21031;DHT22;61072;47.808;7.636;2023-12-22T00:45:28;9.40;99.90
21031;DHT22;61072;47.808;7.636;2023-12-22T00:47:55;9.40;99.90
21031;DHT22;61072;47.808;7.636;2023-12-22T00:50:21;9.40;99.90
21031;DHT22;61072;47.808;7.636;2023-12-22T00:52:48;9.30;99.90
21031;DHT22;61072;47.808;7.636;2023-12-22T00:55:15;9.30;99.90
21031;DHT22;61072;47.808;7.636;2023-12-22T00:57:42;9.30;99.90
21031;DHT22;61072;47.808;7.636;2023-12-22T01:00:09;9.30;99.90
21031;DHT22;61072;47.808;7.636;2023-12-22T01:02:38;9.30;99.90
21031;DHT22;61072;47.808;7.636;2023-12-22T01:05:05;9.30;99.90
21031;DHT22;61072;47.808;7.636;2023-12-22T01:07:32;9.30;99.90
21031;DHT22;61072;47.808;7.636;2023-12-22T01:09:59;9.30;99.90
21031;DHT22;61072;47.808;7.636;2023-12-22T01:12:28;9.30;99.90
21031;DHT22;61072;47.808;7.636;2023-12-22T01:14:56;9.30;99.90
21031;DHT22;61072;47.808;7.636;2023-12-22T01:17:23;9.20;99.90
21031;DHT22;61072;47.808;7.636;2023-12-22T01:19:49;9.20;99.90
21031;DHT22;61072;47.808;7.636;2023-12-22T01:22:18;9.30;99.90
21031;DHT22;61072;47.808;7.636;2023-12-22T01:24:44;9.20;99.90
21031;DHT22;61072;47.808;7.636;2023-12-22T01:27:12;9.20;99.90
21031;DHT22;61072;47.808;7.636;2023-12-22T01:29:39;9.20;99.90
21031;DHT22;61072;47.808;7.636;2023-12-22T01:32:06;9.10;99.90
21031;DHT22;61072;47.808;7.636;2023-12-22T01:34:33;9.10;99.90
21031;DHT22;61072;47.808;7.636;2023-12-22T01:36:59;9.10;99.90
21031;DHT22;61072;47.808;7.636;2023-12-22T01:39:26;9.20;99.90
21031;DHT22;61072;47.808;7.636;2023-12-22T01:41:53;9.20;99.90
21031;DHT22;61072;47.808;7.636;2023-12-22T01:44:19;9.20;99.90
21031;DHT22;61072;47.808;7.636;2023-12-22T01:46:46;9.20;99.90
21031;DHT22;61072;47.808;7.636;2023-12-22T01:49:14;9.20;99.90
21031;DHT22;61072;47.808;7.636;2023-12-22T01:51:41;9.20;99.90
21031;DHT22;61072;47.808;7.636;2023-12-22T01:54:09;9.20;99.90
21031;DHT22;61072;47.808;7.636;2023-12-22T01:56:37;9.20;99.90
21031;DHT22;61072;47.808;7.636;2023-12-22T01:59:04;9.30;99.90
21031;DHT22;61072;47.808;7.636;2023-12-22T02:01:31;9.30;99.90
21031;DHT22;61072;47.808;7.636;2023-12-22T02:03:59;9.30;99.90
21031;DHT22;61072;47.808;7.636;2023-12-22T02:06:27;9.30;99.90
21031;DHT22;61072;47.808;7.636;2023-12-22T02:08:57;9.30;99.90
21031;DHT22;61072;47.808;7.636;2023-12-22T02:11:24;9.30;99.90
21031;DHT22;61072;47.808;7.636;2023-12-22T02:13:51;9.20;99.90
21031;DHT22;61072;47.808;7.636;2023-12-22T02:16:42;9.20;99.90
21031;DHT22;61072;47.808;7.636;2023-12-22T02:19:40;9.30;99.90
21031;DHT22;61072;47.808;7.636;2023-12-22T02:22:10;9.20;99.90
21031;DHT22;61072;47.808;7.636;2023-12-22T02:24:37;9.20;99.90
21031;DHT22;61072;47.808;7.636;2023-12-22T02:30:02;9.20;99.90
21031;DHT22;61072;47.808;7.636;2023-12-22T02:32:32;9.10;99.90
21031;DHT22;61072;47.808;7.636;2023-12-22T02:35:03;9.10;99.90
21031;DHT22;61072;47.808;7.636;2023-12-22T02:37:32;9.10;99.90
21031;DHT22;61072;47.808;7.636;2023-12-22T02:40:01;9.10;99.90
21031;DHT22;61072;47.808;7.636;2023-12-22T02:42:30;9.10;99.90
21031;DHT22;61072;47.808;7.636;2023-12-22T02:44:58;9.10;99.90
21031;DHT22;61072;47.808;7.636;2023-12-22T02:47:26;9.10;99.90
21031;DHT22;61072;47.808;7.636;2023-12-22T02:49:54;9.10;99.90
21031;DHT22;61072;47.808;7.636;2023-12-22T02:52:21;9.10;99.90
21031;DHT22;61072;47.808;7.636;2023-12-22T02:54:48;9.10;99.90
21031;DHT22;61072;47.808;7.636;2023-12-22T02:57:14;9.10;99.90
21031;DHT22;61072;47.808;7.636;2023-12-22T02:59:41;9.20;99.90
21031;DHT22;61072;47.808;7.636;2023-12-22T03:02:08;9.10;99.90
21031;DHT22;61072;47.808;7.636;2023-12-22T03:04:34;9.20;99.90
21031;DHT22;61072;47.808;7.636;2023-12-22T03:07:01;9.10;99.90
21031;DHT22;61072;47.808;7.636;2023-12-22T03:09:28;9.10;99.90
21031;DHT22;61072;47.808;7.636;2023-12-22T03:11:54;9.10;99.90
21031;DHT22;61072;47.808;7.636;2023-12-22T03:14:23;9.10;99.90
21031;DHT22;61072;47.808;7.636;2023-12-22T03:16:50;9.10;99.90
21031;DHT22;61072;47.808;7.636;2023-12-22T03:19:17;9.10;99.90
21031;DHT22;61072;47.808;7.636;2023-12-22T03:21:43;9.10;99.90
21031;DHT22;61072;47.808;7.636;2023-12-22T03:24:10;9.10;99.90
21031;DHT22;61072;47.808;7.636;2023-12-22T03:26:37;9.10;99.90
21031;DHT22;61072;47.808;7.636;2023-12-22T03:29:03;9.10;99.90
21031;DHT22;61072;47.808;7.636;2023-12-22T03:31:30;9.10;99.90
21031;DHT22;61072;47.808;7.636;2023-12-22T03:33:57;9.10;99.90
21031;DHT22;61072;47.808;7.636;2023-12-22T03:36:24;9.10;99.90
21031;DHT22;61072;47.808;7.636;2023-12-22T03:38:50;9.10;99.90
21031;DHT22;61072;47.808;7.636;2023-12-22T03:41:17;9.10;99.90
21031;DHT22;61072;47.808;7.636;2023-12-22T03:43:44;9.10;99.90
21031;DHT22;61072;47.808;7.636;2023-12-22T03:46:11;9.10;99.90
21031;DHT22;61072;47.808;7.636;2023-12-22T03:48:37;9.20;99.90
21031;DHT22;61072;47.808;7.636;2023-12-22T03:51:04;9.10;99.90
21031;DHT22;61072;47.808;7.636;2023-12-22T03:53:31;9.20;99.90
21031;DHT22;61072;47.808;7.636;2023-12-22T03:55:57;9.10;99.90
21031;DHT22;61072;47.808;7.636;2023-12-22T03:58:24;9.10;99.90
21031;DHT22;61072;47.808;7.636;2023-12-22T04:00:52;9.10;99.90
21031;DHT22;61072;47.808;7.636;2023-12-22T04:03:19;9.10;99.90
21031;DHT22;61072;47.808;7.636;2023-12-22T04:05:46;9.10;99.90
21031;DHT22;61072;47.808;7.636;2023-12-22T04:08:13;9.00;99.90
21031;DHT22;61072;47.808;7.636;2023-12-22T04:10:39;9.00;99.90
21031;DHT22;61072;47.808;7.636;2023-12-22T04:13:06;9.00;99.90
21031;DHT22;61072;47.808;7.636;2023-12-22T04:15:33;8.90;99.90
21031;DHT22;61072;47.808;7.636;2023-12-22T04:17:59;8.90;99.90
21031;DHT22;61072;47.808;7.636;2023-12-22T04:20:26;8.80;99.90
21031;DHT22;61072;47.808;7.636;2023-12-22T04:22:53;8.80;99.90
21031;DHT22;61072;47.808;7.636;2023-12-22T04:25:20;8.80;99.90
21031;DHT22;61072;47.808;7.636;2023-12-22T04:27:49;8.80;99.90
21031;DHT22;61072;47.808;7.636;2023-12-22T04:30:16;8.80;99.90
21031;DHT22;61072;47.808;7.636;2023-12-22T04:32:43;8.70;99.90
21031;DHT22;61072;47.808;7.636;2023-12-22T04:35:09;8.70;99.90
21031;DHT22;61072;47.808;7.636;2023-12-22T04:37:36;8.80;99.90
21031;DHT22;61072;47.808;7.636;2023-12-22T04:40:03;8.80;99.90
21031;DHT22;61072;47.808;7.636;2023-12-22T04:42:30;8.70;99.90
21031;DHT22;61072;47.808;7.636;2023-12-22T04:44:57;8.70;99.90
21031;DHT22;61072;47.808;7.636;2023-12-22T04:47:24;8.70;99.90
21031;DHT22;61072;47.808;7.636;2023-12-22T04:49:51;8.70;99.90
21031;DHT22;61072;47.808;7.636;2023-12-22T04:52:17;8.70;99.90
21031;DHT22;61072;47.808;7.636;2023-12-22T04:54:44;8.70;99.90
21031;DHT22;61072;47.808;7.636;2023-12-22T04:57:11;8.70;99.90
21031;DHT22;61072;47.808;7.636;2023-12-22T04:59:40;8.70;99.90
21031;DHT22;61072;47.808;7.636;2023-12-22T05:02:07;8.70;99.90
21031;DHT22;61072;47.808;7.636;2023-12-22T05:04:34;8.70;99.90
21031;DHT22;61072;47.808;7.636;2023-12-22T05:07:00;8.70;99.90
21031;DHT22;61072;47.808;7.636;2023-12-22T05:09:27;8.60;99.90
21031;DHT22;61072;47.808;7.636;2023-12-22T05:11:55;8.60;99.90
21031;DHT22;61072;47.808;7.636;2023-12-22T05:14:21;8.60;99.90
21031;DHT22;61072;47.808;7.636;2023-12-22T05:16:48;8.60;99.90
21031;DHT22;61072;47.808;7.636;2023-12-22T05:19:15;8.60;99.90
21031;DHT22;61072;47.808;7.636;2023-12-22T05:21:42;8.60;99.90
21031;DHT22;61072;47.808;7.636;2023-12-22T05:24:08;8.60;99.90
21031;DHT22;61072;47.808;7.636;2023-12-22T05:26:35;8.60;99.90
21031;DHT22;61072;47.808;7.636;2023-12-22T05:29:02;8.60;99.90
21031;DHT22;61072;47.808;7.636;2023-12-22T05:31:28;8.60;99.90
21031;DHT22;61072;47.808;7.636;2023-12-22T05:33:57;8.70;99.90
21031;DHT22;61072;47.808;7.636;2023-12-22T05:36:25;8.70;99.90
21031;DHT22;61072;47.808;7.636;2023-12-22T05:38:52;8.60;99.90
21031;DHT22;61072;47.808;7.636;2023-12-22T05:41:19;8.60;99.90
21031;DHT22;61072;47.808;7.636;2023-12-22T05:43:45;8.60;99.90
21031;DHT22;61072;47.808;7.636;2023-12-22T05:46:12;8.60;99.90
21031;DHT22;61072;47.808;7.636;2023-12-22T05:48:39;8.60;99.90
21031;DHT22;61072;47.808;7.636;2023-12-22T05:51:05;8.50;99.90
21031;DHT22;61072;47.808;7.636;2023-12-22T05:53:36;8.50;99.90
21031;DHT22;61072;47.808;7.636;2023-12-22T05:56:03;8.50;99.90
21031;DHT22;61072;47.808;7.636;2023-12-22T05:58:30;8.50;99.90
21031;DHT22;61072;47.808;7.636;2023-12-22T06:00:56;8.50;99.90
21031;DHT22;61072;47.808;7.636;2023-12-22T06:03:23;8.50;99.90
21031;DHT22;61072;47.808;7.636;2023-12-22T06:05:50;8.50;99.90
21031;DHT22;61072;47.808;7.636;2023-12-22T06:08:17;8.50;99.90
21031;DHT22;61072;47.808;7.636;2023-12-22T06:10:43;8.50;99.90
21031;DHT22;61072;47.808;7.636;2023-12-22T06:13:11;8.50;99.90
21031;DHT22;61072;47.808;7.636;2023-12-22T06:15:38;8.50;99.90
21031;DHT22;61072;47.808;7.636;2023-12-22T06:18:04;8.50;99.90
21031;DHT22;61072;47.808;7.636;2023-12-22T06:20:31;8.50;99.90
21031;DHT22;61072;47.808;7.636;2023-12-22T06:22:58;8.50;99.90
21031;DHT22;61072;47.808;7.636;2023-12-22T06:25:24;8.50;99.90
21031;DHT22;61072;47.808;7.636;2023-12-22T06:27:51;8.50;99.90
21031;DHT22;61072;47.808;7.636;2023-12-22T06:30:18;8.50;99.90
21031;DHT22;61072;47.808;7.636;2023-12-22T06:32:44;8.50;99.90
21031;DHT22;61072;47.808;7.636;2023-12-22T06:35:11;8.40;99.90
21031;DHT22;61072;47.808;7.636;2023-12-22T06:37:43;8.40;99.90
21031;DHT22;61072;47.808;7.636;2023-12-22T06:40:10;8.40;99.90
21031;DHT22;61072;47.808;7.636;2023-12-22T06:42:37;8.30;99.90
21031;DHT22;61072;47.808;7.636;2023-12-22T06:45:05;8.30;99.90
21031;DHT22;61072;47.808;7.636;2023-12-22T06:47:32;8.30;99.90
21031;DHT22;61072;47.808;7.636;2023-12-22T06:49:59;8.30;99.90
21031;DHT22;61072;47.808;7.636;2023-12-22T06:52:26;8.30;99.90
21031;DHT22;61072;47.808;7.636;2023-12-22T06:54:53;8.30;99.90
21031;DHT22;61072;47.808;7.636;2023-12-22T06:57:20;8.20;99.90
21031;DHT22;61072;47.808;7.636;2023-12-22T06:59:49;8.20;99.90
21031;DHT22;61072;47.808;7.636;2023-12-22T07:02:16;8.20;99.90
21031;DHT22;61072;47.808;7.636;2023-12-22T07:07:47;8.30;99.90
21031;DHT22;61072;47.808;7.636;2023-12-22T07:10:15;8.30;99.90
21031;DHT22;61072;47.808;7.636;2023-12-22T07:12:41;8.30;99.90
21031;DHT22;61072;47.808;7.636;2023-12-22T07:15:09;8.30;99.90
21031;DHT22;61072;47.808;7.636;2023-12-22T07:17:37;8.30;99.90
21031;DHT22;61072;47.808;7.636;2023-12-22T07:20:04;8.20;99.90
21031;DHT22;61072;47.808;7.636;2023-12-22T07:22:31;8.20;99.90
21031;DHT22;61072;47.808;7.636;2023-12-22T07:24:58;8.20;99.90
21031;DHT22;61072;47.808;7.636;2023-12-22T07:27:25;8.20;99.90
21031;DHT22;61072;47.808;7.636;2023-12-22T07:29:54;8.20;99.90
21031;DHT22;61072;47.808;7.636;2023-12-22T07:32:20;8.20;99.90
21031;DHT22;61072;47.808;7.636;2023-12-22T07:34:47;8.20;99.90
21031;DHT22;61072;47.808;7.636;2023-12-22T07:37:14;8.20;99.90
21031;DHT22;61072;47.808;7.636;2023-12-22T07:39:41;8.20;99.90
21031;DHT22;61072;47.808;7.636;2023-12-22T07:42:08;8.20;99.90
21031;DHT22;61072;47.808;7.636;2023-12-22T07:44:35;8.20;99.90
21031;DHT22;61072;47.808;7.636;2023-12-22T07:47:02;8.20;99.90
21031;DHT22;61072;47.808;7.636;2023-12-22T07:49:29;8.20;99.90
21031;DHT22;61072;47.808;7.636;2023-12-22T07:51:58;8.20;99.90
21031;DHT22;61072;47.808;7.636;2023-12-22T07:54:25;8.20;99.90
21031;DHT22;61072;47.808;7.636;2023-12-22T07:56:52;8.20;99.90
21031;DHT22;61072;47.808;7.636;2023-12-22T07:59:19;8.20;99.90
21031;DHT22;61072;47.808;7.636;2023-12-22T08:01:56;8.20;99.90
21031;DHT22;61072;47.808;7.636;2023-12-22T08:04:23;8.20;99.90
21031;DHT22;61072;47.808;7.636;2023-12-22T08:06:50;8.20;99.90
21031;DHT22;61072;47.808;7.636;2023-12-22T08:09:18;8.20;99.90
21031;DHT22;61072;47.808;7.636;2023-12-22T08:11:45;8.30;99.90
21031;DHT22;61072;47.808;7.636;2023-12-22T08:14:13;8.30;99.90
21031;DHT22;61072;47.808;7.636;2023-12-22T08:16:40;8.20;99.90
21031;DHT22;61072;47.808;7.636;2023-12-22T08:19:07;8.30;99.90
21031;DHT22;61072;47.808;7.636;2023-12-22T08:21:34;8.30;99.90
21031;DHT22;61072;47.808;7.636;2023-12-22T08:24:11;8.30;99.90
21031;DHT22;61072;47.808;7.636;2023-12-22T08:26:48;8.30;99.90
21031;DHT22;61072;47.808;7.636;2023-12-22T08:29:15;8.30;99.90
21031;DHT22;61072;47.808;7.636;2023-12-22T08:31:43;8.30;99.90
21031;DHT22;61072;47.808;7.636;2023-12-22T08:34:12;8.30;99.90
21031;DHT22;61072;47.808;7.636;2023-12-22T08:36:39;8.30;99.90
21031;DHT22;61072;47.808;7.636;2023-12-22T08:39:06;8.40;99.90
21031;DHT22;61072;47.808;7.636;2023-12-22T08:41:35;8.40;99.90
21031;DHT22;61072;47.808;7.636;2023-12-22T08:44:05;8.30;99.90
21031;DHT22;61072;47.808;7.636;2023-12-22T08:46:32;8.40;99.90
21031;DHT22;61072;47.808;7.636;2023-12-22T08:48:59;8.40;99.90
21031;DHT22;61072;47.808;7.636;2023-12-22T08:51:27;8.40;99.90
21031;DHT22;61072;47.808;7.636;2023-12-22T08:53:54;8.40;99.90
21031;DHT22;61072;47.808;7.636;2023-12-22T08:56:25;8.40;99.90
21031;DHT22;61072;47.808;7.636;2023-12-22T08:58:52;8.40;99.90
21031;DHT22;61072;47.808;7.636;2023-12-22T09:01:22;8.50;99.90
21031;DHT22;61072;47.808;7.636;2023-12-22T09:03:49;8.50;99.90
21031;DHT22;61072;47.808;7.636;2023-12-22T09:06:17;8.50;99.90
21031;DHT22;61072;47.808;7.636;2023-12-22T09:08:44;8.50;99.90
21031;DHT22;61072;47.808;7.636;2023-12-22T09:11:12;8.50;99.90
21031;DHT22;61072;47.808;7.636;2023-12-22T09:13:39;8.50;99.90
21031;DHT22;61072;47.808;7.636;2023-12-22T09:16:09;8.50;99.90
21031;DHT22;61072;47.808;7.636;2023-12-22T09:18:36;8.50;99.90
21031;DHT22;61072;47.808;7.636;2023-12-22T09:21:03;8.50;99.90
21031;DHT22;61072;47.808;7.636;2023-12-22T09:23:30;8.50;99.90
21031;DHT22;61072;47.808;7.636;2023-12-22T09:25:58;8.60;99.90
21031;DHT22;61072;47.808;7.636;2023-12-22T09:28:25;8.60;99.90
21031;DHT22;61072;47.808;7.636;2023-12-22T09:30:52;8.60;99.90
21031;DHT22;61072;47.808;7.636;2023-12-22T09:33:19;8.60;99.90
21031;DHT22;61072;47.808;7.636;2023-12-22T09:35:46;8.60;99.90
21031;DHT22;61072;47.808;7.636;2023-12-22T09:38:12;8.60;99.90
21031;DHT22;61072;47.808;7.636;2023-12-22T09:40:39;8.60;99.90
21031;DHT22;61072;47.808;7.636;2023-12-22T09:43:07;8.60;99.90
21031;DHT22;61072;47.808;7.636;2023-12-22T09:45:35;8.70;99.90
21031;DHT22;61072;47.808;7.636;2023-12-22T09:48:03;8.60;99.90
21031;DHT22;61072;47.808;7.636;2023-12-22T09:50:32;8.60;99.90
21031;DHT22;61072;47.808;7.636;2023-12-22T09:53:00;8.60;99.90
21031;DHT22;61072;47.808;7.636;2023-12-22T09:55:32;8.60;99.90
21031;DHT22;61072;47.808;7.636;2023-12-22T09:58:02;8.60;99.90
21031;DHT22;61072;47.808;7.636;2023-12-22T10:00:31;8.60;99.90
21031;DHT22;61072;47.808;7.636;2023-12-22T10:02:58;8.70;99.90
21031;DHT22;61072;47.808;7.636;2023-12-22T10:05:25;8.70;99.90
21031;DHT22;61072;47.808;7.636;2023-12-22T10:07:52;8.70;99.90
21031;DHT22;61072;47.808;7.636;2023-12-22T10:10:21;8.70;99.90
21031;DHT22;61072;47.808;7.636;2023-12-22T10:12:49;8.70;99.90
21031;DHT22;61072;47.808;7.636;2023-12-22T10:15:16;8.70;99.90
21031;DHT22;61072;47.808;7.636;2023-12-22T10:17:45;8.70;99.90
21031;DHT22;61072;47.808;7.636;2023-12-22T10:20:11;8.80;99.90
21031;DHT22;61072;47.808;7.636;2023-12-22T10:22:38;8.70;99.90
21031;DHT22;61072;47.808;7.636;2023-12-22T10:25:05;8.70;99.90
21031;DHT22;61072;47.808;7.636;2023-12-22T10:27:36;8.80;99.90
21031;DHT22;61072;47.808;7.636;2023-12-22T10:30:03;8.80;99.90
21031;DHT22;61072;47.808;7.636;2023-12-22T10:32:30;8.80;99.90
21031;DHT22;61072;47.808;7.636;2023-12-22T10:34:57;8.90;99.90
21031;DHT22;61072;47.808;7.636;2023-12-22T10:37:24;8.80;99.90
21031;DHT22;61072;47.808;7.636;2023-12-22T10:39:54;8.80;99.90
21031;DHT22;61072;47.808;7.636;2023-12-22T10:42:21;8.80;99.90
21031;DHT22;61072;47.808;7.636;2023-12-22T10:44:48;8.90;99.90
21031;DHT22;61072;47.808;7.636;2023-12-22T10:47:18;8.80;99.90
21031;DHT22;61072;47.808;7.636;2023-12-22T10:49:48;8.80;99.90
21031;DHT22;61072;47.808;7.636;2023-12-22T10:52:18;8.80;99.90
21031;DHT22;61072;47.808;7.636;2023-12-22T10:54:45;8.90;99.90
21031;DHT22;61072;47.808;7.636;2023-12-22T10:57:12;8.90;99.90
21031;DHT22;61072;47.808;7.636;2023-12-22T10:59:44;8.90;99.90
21031;DHT22;61072;47.808;7.636;2023-12-22T11:02:27;8.90;99.90
21031;DHT22;61072;47.808;7.636;2023-12-22T11:05:03;8.90;99.90
21031;DHT22;61072;47.808;7.636;2023-12-22T11:07:36;8.90;99.90
21031;DHT22;61072;47.808;7.636;2023-12-22T11:10:07;9.00;99.90
21031;DHT22;61072;47.808;7.636;2023-12-22T11:12:36;9.00;99.90
21031;DHT22;61072;47.808;7.636;2023-12-22T11:15:04;9.00;99.90
21031;DHT22;61072;47.808;7.636;2023-12-22T11:17:35;9.10;99.90
21031;DHT22;61072;47.808;7.636;2023-12-22T11:20:03;9.10;99.90
21031;DHT22;61072;47.808;7.636;2023-12-22T11:22:31;9.10;99.90
21031;DHT22;61072;47.808;7.636;2023-12-22T11:25:00;9.10;99.90
21031;DHT22;61072;47.808;7.636;2023-12-22T11:27:29;9.10;99.90
21031;DHT22;61072;47.808;7.636;2023-12-22T11:29:56;9.20;99.90
21031;DHT22;61072;47.808;7.636;2023-12-22T11:32:25;9.20;99.90
21031;DHT22;61072;47.808;7.636;2023-12-22T11:34:53;9.20;99.90
21031;DHT22;61072;47.808;7.636;2023-12-22T11:37:21;9.30;99.90
21031;DHT22;61072;47.808;7.636;2023-12-22T11:39:48;9.30;99.90
21031;DHT22;61072;47.808;7.636;2023-12-22T11:42:18;9.30;99.90
21031;DHT22;61072;47.808;7.636;2023-12-22T11:44:45;9.30;99.90
21031;DHT22;61072;47.808;7.636;2023-12-22T11:47:14;9.40;99.90
21031;DHT22;61072;47.808;7.636;2023-12-22T11:49:41;9.30;99.90
21031;DHT22;61072;47.808;7.636;2023-12-22T11:54:51;9.30;99.90
21031;DHT22;61072;47.808;7.636;2023-12-22T12:02:30;9.40;99.90
21031;DHT22;61072;47.808;7.636;2023-12-22T12:04:57;9.40;99.90
21031;DHT22;61072;47.808;7.636;2023-12-22T12:07:39;9.40;99.90
21031;DHT22;61072;47.808;7.636;2023-12-22T12:10:10;9.40;99.90
21031;DHT22;61072;47.808;7.636;2023-12-22T12:12:37;9.40;99.90
21031;DHT22;61072;47.808;7.636;2023-12-22T12:15:10;9.40;99.90
21031;DHT22;61072;47.808;7.636;2023-12-22T12:17:41;9.40;99.90
21031;DHT22;61072;47.808;7.636;2023-12-22T12:20:10;9.40;99.90
21031;DHT22;61072;47.808;7.636;2023-12-22T12:22:38;9.40;99.90
21031;DHT22;61072;47.808;7.636;2023-12-22T12:25:09;9.40;99.90
21031;DHT22;61072;47.808;7.636;2023-12-22T12:28:01;9.50;99.90
21031;DHT22;61072;47.808;7.636;2023-12-22T12:30:28;9.40;99.90
21031;DHT22;61072;47.808;7.636;2023-12-22T12:33:08;9.40;99.90
21031;DHT22;61072;47.808;7.636;2023-12-22T12:35:37;9.50;99.90
21031;DHT22;61072;47.808;7.636;2023-12-22T12:38:10;9.50;99.90
21031;DHT22;61072;47.808;7.636;2023-12-22T12:40:39;9.50;99.90
21031;DHT22;61072;47.808;7.636;2023-12-22T12:43:07;9.50;99.90
21031;DHT22;61072;47.808;7.636;2023-12-22T12:45:34;9.60;99.90
21031;DHT22;61072;47.808;7.636;2023-12-22T12:48:02;9.60;99.90
21031;DHT22;61072;47.808;7.636;2023-12-22T12:50:32;9.70;99.90
21031;DHT22;61072;47.808;7.636;2023-12-22T12:53:00;9.70;99.90
21031;DHT22;61072;47.808;7.636;2023-12-22T12:55:27;9.70;99.90
21031;DHT22;61072;47.808;7.636;2023-12-22T12:57:55;9.70;99.90
21031;DHT22;61072;47.808;7.636;2023-12-22T13:03:10;9.70;99.90
21031;DHT22;61072;47.808;7.636;2023-12-22T13:05:37;9.70;99.90
21031;DHT22;61072;47.808;7.636;2023-12-22T13:08:10;9.70;99.90
21031;DHT22;61072;47.808;7.636;2023-12-22T13:10:38;9.60;99.90
21031;DHT22;61072;47.808;7.636;2023-12-22T13:13:05;9.60;99.90
21031;DHT22;61072;47.808;7.636;2023-12-22T13:15:32;9.60;99.90
21031;DHT22;61072;47.808;7.636;2023-12-22T13:17:59;9.70;99.90
21031;DHT22;61072;47.808;7.636;2023-12-22T13:20:27;9.60;99.90
21031;DHT22;61072;47.808;7.636;2023-12-22T13:22:54;9.60;99.90
21031;DHT22;61072;47.808;7.636;2023-12-22T13:25:21;9.60;99.90
21031;DHT22;61072;47.808;7.636;2023-12-22T13:27:51;9.70;99.90
21031;DHT22;61072;47.808;7.636;2023-12-22T13:30:33;9.70;99.90
21031;DHT22;61072;47.808;7.636;2023-12-22T13:32:59;9.70;99.90
21031;DHT22;61072;47.808;7.636;2023-12-22T13:35:26;9.60;99.90
21031;DHT22;61072;47.808;7.636;2023-12-22T13:37:55;9.60;99.90
21031;DHT22;61072;47.808;7.636;2023-12-22T13:40:22;9.60;99.90
21031;DHT22;61072;47.808;7.636;2023-12-22T13:42:56;9.60;99.90
21031;DHT22;61072;47.808;7.636;2023-12-22T13:45:25;9.60;99.90
21031;DHT22;61072;47.808;7.636;2023-12-22T13:47:52;9.60;99.90
21031;DHT22;61072;47.808;7.636;2023-12-22T13:50:20;9.70;99.90
21031;DHT22;61072;47.808;7.636;2023-12-22T13:52:50;9.60;99.90
21031;DHT22;61072;47.808;7.636;2023-12-22T13:55:19;9.60;99.90
21031;DHT22;61072;47.808;7.636;2023-12-22T13:57:46;9.70;99.90
21031;DHT22;61072;47.808;7.636;2023-12-22T14:02:49;9.60;99.90
21031;DHT22;61072;47.808;7.636;2023-12-22T14:05:17;9.60;99.90
21031;DHT22;61072;47.808;7.636;2023-12-22T14:07:44;9.60;99.90
21031;DHT22;61072;47.808;7.636;2023-12-22T14:10:12;9.50;99.90
21031;DHT22;61072;47.808;7.636;2023-12-22T14:12:39;9.50;99.90
21031;DHT22;61072;47.808;7.636;2023-12-22T14:15:10;9.60;99.90
21031;DHT22;61072;47.808;7.636;2023-12-22T14:17:37;9.50;99.90
21031;DHT22;61072;47.808;7.636;2023-12-22T14:20:05;9.50;99.90
21031;DHT22;61072;47.808;7.636;2023-12-22T14:22:33;9.50;99.90
21031;DHT22;61072;47.808;7.636;2023-12-22T14:25:01;9.50;99.90
21031;DHT22;61072;47.808;7.636;2023-12-22T14:27:28;9.50;99.90
21031;DHT22;61072;47.808;7.636;2023-12-22T14:29:54;9.50;99.90
21031;DHT22;61072;47.808;7.636;2023-12-22T14:32:21;9.50;99.90
21031;DHT22;61072;47.808;7.636;2023-12-22T14:34:49;9.50;99.90
21031;DHT22;61072;47.808;7.636;2023-12-22T14:37:15;9.50;99.90
21031;DHT22;61072;47.808;7.636;2023-12-22T14:39:46;9.50;99.90
21031;DHT22;61072;47.808;7.636;2023-12-22T14:42:13;9.50;99.90
21031;DHT22;61072;47.808;7.636;2023-12-22T14:44:40;9.50;99.90
21031;DHT22;61072;47.808;7.636;2023-12-22T14:47:07;9.50;99.90
21031;DHT22;61072;47.808;7.636;2023-12-22T14:49:37;9.50;99.90
21031;DHT22;61072;47.808;7.636;2023-12-22T14:52:04;9.50;99.90
21031;DHT22;61072;47.808;7.636;2023-12-22T14:54:31;9.50;99.90
21031;DHT22;61072;47.808;7.636;2023-12-22T14:56:57;9.50;99.90
21031;DHT22;61072;47.808;7.636;2023-12-22T14:59:24;9.50;99.90
21031;DHT22;61072;47.808;7.636;2023-12-22T15:01:51;9.50;99.90
21031;DHT22;61072;47.808;7.636;2023-12-22T15:04:18;9.50;99.90
21031;DHT22;61072;47.808;7.636;2023-12-22T15:06:48;9.50;99.90
21031;DHT22;61072;47.808;7.636;2023-12-22T15:09:26;9.50;99.90
21031;DHT22;61072;47.808;7.636;2023-12-22T15:11:53;9.50;99.90
21031;DHT22;61072;47.808;7.636;2023-12-22T15:14:21;9.50;99.90
21031;DHT22;61072;47.808;7.636;2023-12-22T15:16:50;9.50;99.90
21031;DHT22;61072;47.808;7.636;2023-12-22T15:19:20;9.50;99.90
21031;DHT22;61072;47.808;7.636;2023-12-22T15:21:47;9.50;99.90
21031;DHT22;61072;47.808;7.636;2023-12-22T15:24:14;9.40;99.90
21031;DHT22;61072;47.808;7.636;2023-12-22T15:26:41;9.50;99.90
21031;DHT22;61072;47.808;7.636;2023-12-22T15:29:08;9.40;99.90
21031;DHT22;61072;47.808;7.636;2023-12-22T15:31:35;9.40;99.90
21031;DHT22;61072;47.808;7.636;2023-12-22T15:34:04;9.40;99.90
21031;DHT22;61072;47.808;7.636;2023-12-22T15:36:32;9.40;99.90
21031;DHT22;61072;47.808;7.636;2023-12-22T15:39:00;9.40;99.90
21031;DHT22;61072;47.808;7.636;2023-12-22T15:41:30;9.40;99.90
21031;DHT22;61072;47.808;7.636;2023-12-22T15:43:57;9.40;99.90
21031;DHT22;61072;47.808;7.636;2023-12-22T15:46:24;9.40;99.90
21031;DHT22;61072;47.808;7.636;2023-12-22T15:48:51;9.40;99.90
21031;DHT22;61072;47.808;7.636;2023-12-22T15:51:20;9.40;99.90
21031;DHT22;61072;47.808;7.636;2023-12-22T15:53:47;9.40;99.90
21031;DHT22;61072;47.808;7.636;2023-12-22T15:56:14;9.40;99.90
21031;DHT22;61072;47.808;7.636;2023-12-22T15:58:42;9.40;99.90
21031;DHT22;61072;47.808;7.636;2023-12-22T16:01:11;9.40;99.90
21031;DHT22;61072;47.808;7.636;2023-12-22T16:03:39;9.30;99.90
21031;DHT22;61072;47.808;7.636;2023-12-22T16:06:07;9.30;99.90
21031;DHT22;61072;47.808;7.636;2023-12-22T16:08:34;9.30;99.90